createdAt,value
2022-08-17T00:02:04.974Z,17.79
2022-08-17T00:04:40.989Z,17.61
2022-08-17T00:07:07.837Z,17.79
2022-08-17T00:09:34.247Z,17.77
2022-08-17T00:12:41.280Z,17.54
2022-08-17T00:14:50.319Z,17.49
2022-08-17T00:17:16.787Z,17.44
2022-08-17T00:19:43.377Z,17.38
2022-08-17T00:22:32.177Z,17.36
2022-08-17T00:24:56.305Z,17.21
2022-08-17T00:27:22.802Z,17.18
2022-08-17T00:29:49.257Z,17.25
2022-08-17T00:33:12.286Z,16.93
2022-08-17T00:35:06.441Z,16.58
2022-08-17T00:37:32.935Z,16.84
2022-08-17T00:39:59.591Z,16.97
2022-08-17T00:42:30.808Z,16.88
2022-08-17T00:44:58.084Z,16.91
2022-08-17T00:47:24.595Z,16.92
2022-08-17T00:49:51.068Z,16.86
2022-08-17T00:52:22.985Z,16.97
2022-08-17T00:54:53.922Z,16.96
2022-08-17T00:57:24.685Z,16.81
2022-08-17T01:00:03.153Z,16.98
2022-08-17T01:02:51.486Z,17.01
2022-08-17T01:05:20.848Z,17.03
2022-08-17T01:07:50.712Z,17.04
2022-08-17T01:10:59.577Z,17.01
2022-08-17T01:13:11.157Z,16.71
2022-08-17T01:15:41.747Z,16.94
2022-08-17T01:18:14.051Z,16.92
2022-08-17T01:20:48.015Z,16.86
2022-08-17T01:23:20.636Z,16.88
2022-08-17T01:25:56.697Z,16.94
2022-08-17T01:28:52.618Z,16.73
2022-08-17T01:31:12.933Z,16.81
2022-08-17T01:33:39.434Z,16.79
2022-08-17T01:36:07.368Z,16.74
2022-08-17T01:38:38.382Z,16.63
2022-08-17T01:41:15.337Z,16.65
2022-08-17T01:43:50.890Z,16.47
2022-08-17T01:46:23.784Z,16.41
2022-08-17T01:48:51.542Z,16.59
2022-08-17T01:51:19.709Z,16.61
2022-08-17T01:53:51.630Z,16.72
2022-08-17T01:56:21.440Z,16.74
2022-08-17T01:58:48.378Z,16.70
2022-08-17T02:01:19.473Z,16.53
2022-08-17T02:03:59.016Z,16.68
2022-08-17T02:06:43.954Z,16.57
2022-08-17T02:09:17.016Z,16.51
2022-08-17T02:11:44.240Z,16.46
2022-08-17T02:14:12.202Z,16.35
2022-08-17T02:16:41.200Z,16.18
2022-08-17T02:19:13.566Z,16.19
2022-08-17T02:21:42.077Z,16.20
2022-08-17T02:24:58.641Z,16.37
2022-08-17T02:27:27.991Z,16.27
2022-08-17T02:29:54.591Z,16.27
2022-08-17T02:32:27.996Z,16.16
2022-08-17T02:34:55.761Z,16.10
2022-08-17T02:37:22.290Z,16.18
2022-08-17T02:39:48.797Z,16.26
2022-08-17T02:42:15.561Z,16.28
2022-08-17T02:44:42.043Z,16.13
2022-08-17T02:47:10.044Z,16.10
2022-08-17T02:49:37.274Z,16.26
2022-08-17T02:52:06.594Z,16.28
2022-08-17T02:54:39.941Z,16.27
2022-08-17T02:57:10.529Z,16.11
2022-08-17T02:59:46.758Z,16.15
2022-08-17T03:02:15.405Z,16.06
2022-08-17T03:04:43.328Z,15.86
2022-08-17T03:07:09.766Z,15.39
2022-08-17T03:09:36.326Z,15.72
2022-08-17T03:12:08.995Z,15.64
2022-08-17T03:14:41.758Z,15.73
2022-08-17T03:17:10.177Z,15.90
2022-08-17T03:19:37.201Z,15.92
2022-08-17T03:22:36.408Z,16.05
2022-08-17T03:24:57.343Z,16.20
2022-08-17T03:27:23.775Z,16.20
2022-08-17T03:29:50.257Z,16.29
2022-08-17T03:32:16.802Z,16.33
2022-08-17T03:34:43.526Z,16.50
2022-08-17T03:37:10.083Z,16.64
2022-08-17T03:39:36.602Z,16.64
2022-08-17T03:42:09.016Z,16.65
2022-08-17T03:44:57.879Z,16.48
2022-08-17T03:47:43.638Z,16.61
2022-08-17T03:50:38.709Z,16.71
2022-08-17T03:53:30.687Z,16.72
2022-08-17T03:56:20.484Z,16.68
2022-08-17T03:58:47.916Z,16.72
2022-08-17T04:01:15.578Z,16.53
2022-08-17T04:03:42.094Z,16.46
2022-08-17T04:06:08.598Z,16.62
2022-08-17T04:08:35.524Z,16.64
2022-08-17T04:11:02.298Z,16.41
2022-08-17T04:13:28.786Z,16.61
2022-08-17T04:15:56.095Z,16.40
2022-08-17T04:18:22.667Z,16.64
2022-08-17T04:20:49.177Z,16.77
2022-08-17T04:23:18.595Z,16.70
2022-08-17T04:25:49.196Z,16.59
2022-08-17T04:28:16.892Z,16.67
2022-08-17T04:30:45.193Z,16.62
2022-08-17T04:33:17.939Z,16.68
2022-08-17T04:35:47.052Z,16.76
2022-08-17T04:38:16.515Z,16.58
2022-08-17T04:41:02.462Z,16.78
2022-08-17T04:43:31.174Z,16.80
2022-08-17T04:46:01.288Z,16.81
2022-08-17T04:48:36.837Z,16.86
2022-08-17T04:51:10.377Z,16.79
2022-08-17T04:53:38.310Z,16.84
2022-08-17T04:56:05.217Z,16.91
2022-08-17T04:58:31.901Z,16.83
2022-08-17T05:00:58.521Z,16.83
2022-08-17T05:03:25.834Z,16.90
2022-08-17T05:05:52.479Z,16.92
2022-08-17T05:08:20.856Z,16.88
2022-08-17T05:10:48.422Z,16.54
2022-08-17T05:13:27.445Z,16.86
2022-08-17T05:15:57.284Z,16.69
2022-08-17T05:18:24.562Z,16.64
2022-08-17T05:20:52.373Z,16.73
2022-08-17T05:23:21.908Z,16.77
2022-08-17T05:25:52.726Z,16.86
2022-08-17T05:28:24.170Z,16.95
2022-08-17T05:30:56.715Z,16.91
2022-08-17T05:33:27.165Z,17.09
2022-08-17T05:35:56.472Z,17.06
2022-08-17T05:38:25.350Z,17.07
2022-08-17T05:40:52.645Z,17.08
2022-08-17T05:43:22.356Z,17.11
2022-08-17T05:45:59.635Z,17.12
2022-08-17T05:48:35.444Z,17.16
2022-08-17T05:51:15.540Z,17.27
2022-08-17T05:54:05.244Z,17.27
2022-08-17T05:57:04.094Z,17.20
2022-08-17T05:59:55.112Z,17.08
2022-08-17T06:03:06.035Z,17.23
2022-08-17T06:06:17.355Z,17.33
2022-08-17T06:08:59.171Z,17.44
2022-08-17T06:11:38.915Z,17.38
2022-08-17T06:14:23.440Z,17.54
2022-08-17T06:16:55.958Z,17.67
2022-08-17T06:19:37.400Z,17.70
2022-08-17T06:22:07.411Z,17.76
2022-08-17T06:24:39.089Z,17.75
2022-08-17T06:27:43.087Z,17.74
2022-08-17T06:30:15.755Z,17.72
2022-08-17T06:32:45.014Z,17.66
2022-08-17T06:35:15.230Z,17.77
2022-08-17T06:37:53.618Z,17.85
2022-08-17T06:40:57.841Z,17.59
2022-08-17T06:43:35.682Z,17.39
2022-08-17T06:46:08.147Z,17.58
2022-08-17T06:48:46.957Z,17.65
2022-08-17T06:51:25.556Z,17.65
2022-08-17T06:54:15.330Z,17.69
2022-08-17T06:56:53.762Z,17.79
2022-08-17T06:59:26.787Z,17.62
2022-08-17T07:02:19.967Z,17.53
2022-08-17T07:04:56.767Z,17.47
2022-08-17T07:07:42.137Z,17.32
2022-08-17T07:10:10.031Z,17.35
2022-08-17T07:12:40.373Z,17.48
2022-08-17T07:15:42.231Z,17.58
2022-08-17T07:18:10.068Z,17.70
2022-08-17T07:20:42.695Z,17.73
2022-08-17T07:23:22.857Z,17.86
2022-08-17T07:25:49.470Z,17.87
2022-08-17T07:28:22.897Z,17.90
2022-08-17T07:30:54.142Z,17.94
2022-08-17T07:33:30.104Z,17.90
2022-08-17T07:35:58.018Z,17.94
2022-08-17T07:38:30.034Z,17.96
2022-08-17T07:41:03.004Z,17.92
2022-08-17T07:43:39.112Z,18.02
2022-08-17T07:46:53.804Z,18.10
2022-08-17T07:49:39.660Z,18.23
2022-08-17T07:52:51.274Z,18.32
2022-08-17T07:55:32.887Z,18.49
2022-08-17T07:58:00.202Z,18.55
2022-08-17T08:00:32.240Z,18.44
2022-08-17T08:03:14.669Z,18.62
2022-08-17T08:05:51.037Z,18.81
2022-08-17T08:08:32.764Z,18.91
2022-08-17T08:11:01.088Z,19.02
2022-08-17T08:13:30.266Z,19.03
2022-08-17T08:16:16.653Z,19.09
2022-08-17T08:18:55.592Z,19.20
2022-08-17T08:21:46.352Z,19.11
2022-08-17T08:24:25.819Z,19.30
2022-08-17T08:27:42.954Z,19.39
2022-08-17T08:30:14.331Z,19.45
2022-08-17T08:33:01.480Z,19.44
2022-08-17T08:35:44.379Z,19.50
2022-08-17T08:38:28.401Z,19.53
2022-08-17T08:41:12.930Z,19.56
2022-08-17T08:44:06.792Z,19.51
2022-08-17T08:46:50.364Z,19.47
2022-08-17T08:50:03.814Z,19.53
2022-08-17T08:52:57.534Z,19.41
2022-08-17T08:55:53.499Z,19.27
2022-08-17T08:58:48.245Z,19.29
2022-08-17T09:01:41.745Z,19.34
2022-08-17T09:05:02.651Z,19.38
2022-08-17T09:07:46.689Z,19.52
2022-08-17T09:10:19.473Z,19.57
2022-08-17T09:13:14.396Z,19.50
2022-08-17T09:15:46.608Z,19.55
2022-08-17T09:19:02.770Z,19.48
2022-08-17T09:21:13.317Z,19.46
2022-08-17T09:23:49.490Z,19.52
2022-08-17T09:26:22.435Z,19.64
2022-08-17T09:29:00.155Z,19.71
2022-08-17T09:31:55.202Z,19.78
2022-08-17T09:34:38.219Z,19.98
2022-08-17T09:37:26.907Z,20.07
2022-08-17T09:40:13.996Z,20.10
2022-08-17T09:42:58.730Z,20.08
2022-08-17T09:45:37.491Z,20.20
2022-08-17T09:48:26.027Z,20.33
2022-08-17T09:51:05.877Z,20.36
2022-08-17T09:53:35.750Z,20.36
2022-08-17T09:56:14.568Z,20.40
2022-08-17T09:58:51.214Z,20.34
2022-08-17T10:01:36.218Z,20.35
2022-08-17T10:04:20.070Z,20.50
2022-08-17T10:07:19.228Z,20.44
2022-08-17T10:09:55.781Z,20.60
2022-08-17T10:12:38.241Z,20.68
2022-08-17T10:15:34.591Z,21.05
2022-08-17T10:18:42.107Z,21.34
2022-08-17T10:21:30.274Z,21.66
2022-08-17T10:24:24.610Z,22.04
2022-08-17T10:26:56.808Z,22.07
2022-08-17T10:29:48.626Z,22.79
2022-08-17T10:32:47.179Z,22.73
2022-08-17T10:35:25.897Z,22.75
2022-08-17T10:38:29.895Z,22.87
2022-08-17T10:41:15.226Z,22.85
2022-08-17T10:44:40.321Z,22.74
2022-08-17T10:47:09.528Z,22.76
2022-08-17T10:49:38.881Z,22.75
2022-08-17T10:52:20.662Z,22.70
2022-08-17T10:54:51.839Z,22.71
2022-08-17T10:57:34.432Z,22.66
2022-08-17T11:00:17.349Z,22.53
2022-08-17T11:02:50.036Z,22.37
2022-08-17T11:05:44.060Z,22.39
2022-08-17T11:08:30.202Z,22.21
2022-08-17T11:11:23.220Z,22.28
2022-08-17T11:14:26.885Z,22.00
2022-08-17T11:17:16.197Z,22.42
2022-08-17T11:20:07.031Z,22.57
2022-08-17T11:23:14.672Z,22.66
2022-08-17T11:25:50.734Z,22.89
2022-08-17T11:28:25.979Z,22.86
2022-08-17T11:30:56.216Z,22.97
2022-08-17T11:33:28.621Z,23.03
2022-08-17T11:36:20.561Z,23.26
2022-08-17T11:39:01.018Z,23.26
2022-08-17T11:41:49.524Z,23.47
2022-08-17T11:44:26.379Z,23.54
2022-08-17T11:47:33.726Z,23.50
2022-08-17T11:50:36.349Z,23.63
2022-08-17T11:53:04.077Z,23.67
2022-08-17T11:55:37.535Z,23.43
2022-08-17T11:58:28.886Z,23.50
2022-08-17T12:01:04.022Z,23.42
2022-08-17T12:03:33.259Z,23.40
2022-08-17T12:06:19.437Z,23.53
2022-08-17T12:08:53.763Z,23.35
2022-08-17T12:11:57.833Z,23.40
2022-08-17T12:15:08.332Z,23.56
2022-08-17T12:17:40.193Z,23.60
2022-08-17T12:20:37.600Z,23.93
2022-08-17T12:23:26.546Z,24.17
2022-08-17T12:26:04.843Z,24.01
2022-08-17T12:28:35.431Z,24.11
2022-08-17T12:31:15.810Z,24.22
2022-08-17T12:33:45.141Z,24.24
2022-08-17T12:36:15.192Z,24.33
2022-08-17T12:38:50.858Z,24.74
2022-08-17T12:41:31.383Z,25.09
2022-08-17T12:44:02.874Z,25.29
2022-08-17T12:46:34.751Z,25.56
2022-08-17T12:49:42.163Z,25.75
2022-08-17T12:52:25.629Z,25.85
2022-08-17T12:55:21.251Z,25.31
2022-08-17T12:57:54.202Z,25.41
2022-08-17T13:00:40.848Z,25.34
2022-08-17T13:03:20.940Z,25.49
2022-08-17T13:06:06.568Z,25.38
2022-08-17T13:08:43.787Z,25.69
2022-08-17T13:11:19.058Z,25.42
2022-08-17T13:13:51.719Z,25.61
2022-08-17T13:16:23.850Z,25.86
2022-08-17T13:19:07.239Z,25.98
2022-08-17T13:21:36.415Z,26.08
2022-08-17T13:24:10.969Z,26.22
2022-08-17T13:26:39.298Z,26.49
2022-08-17T13:29:23.947Z,26.27
2022-08-17T13:32:01.115Z,26.52
2022-08-17T13:34:48.955Z,26.73
2022-08-17T13:37:32.952Z,27.00
2022-08-17T13:40:19.407Z,27.15
2022-08-17T13:42:52.944Z,27.20
2022-08-17T13:45:36.156Z,27.10
2022-08-17T13:48:20.911Z,27.17
2022-08-17T13:50:56.549Z,27.27
2022-08-17T13:53:24.936Z,27.31
2022-08-17T13:56:37.913Z,27.45
2022-08-17T13:59:53.520Z,27.53
2022-08-17T14:02:19.641Z,27.65
2022-08-17T14:04:47.946Z,27.61
2022-08-17T14:07:15.862Z,27.63
2022-08-17T14:09:51.731Z,27.56
2022-08-17T14:12:21.614Z,27.06
2022-08-17T14:14:49.492Z,27.10
2022-08-17T14:17:16.212Z,26.64
2022-08-17T14:19:42.692Z,26.71
2022-08-17T14:22:18.739Z,26.88
2022-08-17T14:24:45.770Z,27.07
2022-08-17T14:27:12.331Z,27.12
2022-08-17T14:29:41.002Z,27.19
2022-08-17T14:32:30.302Z,27.11
2022-08-17T14:34:57.838Z,27.07
2022-08-17T14:37:27.838Z,27.12
2022-08-17T14:40:00.034Z,26.87
2022-08-17T14:42:30.939Z,26.77
2022-08-17T14:44:58.782Z,26.75
2022-08-17T14:47:26.557Z,26.62
2022-08-17T14:49:54.124Z,26.83
2022-08-17T14:52:21.653Z,27.03
2022-08-17T14:54:51.206Z,27.08
2022-08-17T14:57:33.308Z,26.85
2022-08-17T15:00:01.773Z,26.51
2022-08-17T15:02:30.408Z,26.55
2022-08-17T15:05:03.940Z,26.38
2022-08-17T15:07:31.419Z,26.58
2022-08-17T15:10:00.693Z,26.59
2022-08-17T15:12:32.775Z,26.73
2022-08-17T15:15:01.644Z,26.80
2022-08-17T15:17:45.125Z,26.75
2022-08-17T15:20:15.668Z,26.61
2022-08-17T15:22:43.646Z,26.45
2022-08-17T15:25:11.532Z,26.38
2022-08-17T15:27:37.995Z,26.55
2022-08-17T15:30:07.201Z,26.50
2022-08-17T15:32:37.975Z,26.63
2022-08-17T15:35:06.805Z,26.45
2022-08-17T15:37:33.425Z,26.33
2022-08-17T15:40:03.022Z,26.30
2022-08-17T15:42:29.566Z,26.30
2022-08-17T15:44:56.539Z,26.29
2022-08-17T15:47:23.289Z,26.41
2022-08-17T15:49:50.706Z,26.49
2022-08-17T15:52:20.384Z,26.54
2022-08-17T15:54:52.046Z,26.56
2022-08-17T15:57:19.246Z,26.46
2022-08-17T15:59:46.494Z,26.34
2022-08-17T16:03:13.250Z,26.59
2022-08-17T16:05:18.834Z,26.59
2022-08-17T16:07:47.217Z,26.67
2022-08-17T16:10:18.855Z,26.59
2022-08-17T16:12:47.868Z,26.65
2022-08-17T16:15:15.046Z,26.61
2022-08-17T16:17:41.717Z,26.60
2022-08-17T16:20:19.583Z,26.53
2022-08-17T16:22:49.892Z,26.34
2022-08-17T16:25:21.482Z,26.32
2022-08-17T16:27:54.336Z,26.23
2022-08-17T16:30:24.807Z,26.12
2022-08-17T16:32:52.903Z,26.17
2022-08-17T16:35:22.670Z,26.14
2022-08-17T16:37:49.447Z,26.18
2022-08-17T16:40:17.202Z,26.05
2022-08-17T16:42:45.652Z,26.11
2022-08-17T16:45:16.797Z,26.01
2022-08-17T16:47:43.786Z,26.02
2022-08-17T16:50:17.625Z,25.95
2022-08-17T16:52:44.292Z,25.98
2022-08-17T16:55:13.256Z,26.00
2022-08-17T16:57:47.400Z,25.90
2022-08-17T17:00:19.451Z,25.95
2022-08-17T17:02:47.746Z,25.97
2022-08-17T17:05:35.592Z,25.77
2022-08-17T17:08:15.050Z,25.76
2022-08-17T17:10:46.946Z,25.58
2022-08-17T17:13:19.222Z,25.47
2022-08-17T17:15:54.951Z,25.49
2022-08-17T17:18:32.160Z,25.39
2022-08-17T17:21:00.387Z,25.33
2022-08-17T17:23:54.917Z,25.32
2022-08-17T17:26:50.133Z,25.37
2022-08-17T17:29:48.837Z,25.42
2022-08-17T17:32:25.373Z,25.40
2022-08-17T17:35:05.801Z,25.29
2022-08-17T17:37:34.617Z,25.32
2022-08-17T17:40:23.126Z,25.31
2022-08-17T17:42:55.004Z,25.20
2022-08-17T17:45:26.025Z,25.09
2022-08-17T17:47:53.169Z,24.93
2022-08-17T17:50:25.186Z,24.95
2022-08-17T17:53:04.279Z,25.02
2022-08-17T17:55:59.441Z,24.92
2022-08-17T17:58:50.919Z,24.92
2022-08-17T18:01:31.130Z,24.88
2022-08-17T18:04:20.651Z,24.88
2022-08-17T18:07:00.511Z,24.86
2022-08-17T18:09:51.861Z,24.79
2022-08-17T18:12:49.824Z,24.78
2022-08-17T18:15:37.023Z,24.82
2022-08-17T18:18:15.938Z,24.82
2022-08-17T18:20:53.960Z,24.85
2022-08-17T18:23:28.123Z,24.75
2022-08-17T18:25:56.301Z,24.71
2022-08-17T18:28:26.000Z,24.62
2022-08-17T18:31:17.303Z,24.41
2022-08-17T18:33:53.316Z,24.47
2022-08-17T18:36:33.285Z,24.43
2022-08-17T18:39:27.816Z,24.33
2022-08-17T18:41:57.666Z,24.27
2022-08-17T18:44:30.821Z,24.18
2022-08-17T18:47:14.550Z,24.02
2022-08-17T18:49:49.762Z,23.93
2022-08-17T18:52:29.653Z,23.99
2022-08-17T18:55:08.772Z,24.05
2022-08-17T18:57:55.455Z,24.05
2022-08-17T19:00:40.769Z,23.83
2022-08-17T19:03:16.225Z,23.77
2022-08-17T19:05:50.847Z,23.67
2022-08-17T19:08:33.991Z,23.54
2022-08-17T19:11:05.348Z,23.48
2022-08-17T19:13:37.325Z,23.32
2022-08-17T19:16:20.029Z,23.34
2022-08-17T19:18:54.813Z,23.34
2022-08-17T19:21:25.182Z,23.30
2022-08-17T19:24:05.617Z,23.28
2022-08-17T19:26:54.031Z,23.26
2022-08-17T19:29:46.672Z,23.25
2022-08-17T19:32:17.314Z,23.25
2022-08-17T19:34:44.386Z,23.24
2022-08-17T19:37:38.770Z,23.24
2022-08-17T19:40:07.929Z,23.20
2022-08-17T19:43:11.355Z,23.15
2022-08-17T19:45:42.322Z,23.03
2022-08-17T19:48:18.037Z,22.89
2022-08-17T19:51:00.777Z,22.89
2022-08-17T19:54:04.758Z,22.85
2022-08-17T19:56:49.371Z,22.82
2022-08-17T19:59:41.430Z,22.76
2022-08-17T20:02:32.492Z,22.76
2022-08-17T20:05:04.352Z,22.64
2022-08-17T20:08:00.683Z,22.58
2022-08-17T20:10:47.375Z,22.11
2022-08-17T20:13:33.497Z,22.07
2022-08-17T20:16:01.746Z,22.04
2022-08-17T20:19:19.439Z,21.82
2022-08-17T20:21:53.870Z,21.95
2022-08-17T20:24:37.838Z,21.95
2022-08-17T20:27:16.591Z,21.94
2022-08-17T20:29:55.249Z,21.83
2022-08-17T20:32:26.227Z,21.80
2022-08-17T20:35:06.060Z,21.79
2022-08-17T20:37:35.014Z,21.66
2022-08-17T20:40:04.807Z,21.75
2022-08-17T20:42:33.783Z,21.71
2022-08-17T20:45:22.038Z,21.68
2022-08-17T20:48:15.994Z,21.58
2022-08-17T20:50:44.025Z,21.36
2022-08-17T20:53:31.470Z,21.49
2022-08-17T20:55:58.102Z,21.41
2022-08-17T20:58:24.509Z,21.38
2022-08-17T21:00:57.132Z,21.33
2022-08-17T21:03:23.667Z,21.30
2022-08-17T21:06:00.308Z,21.15
2022-08-17T21:08:45.786Z,21.11
2022-08-17T21:12:01.516Z,21.12
2022-08-17T21:14:56.060Z,21.01
2022-08-17T21:17:39.421Z,20.82
2022-08-17T21:20:32.111Z,20.82
2022-08-17T21:23:08.856Z,20.79
2022-08-17T21:25:54.044Z,20.76
2022-08-17T21:28:33.792Z,20.80
2022-08-17T21:31:08.376Z,20.74
2022-08-17T21:33:39.925Z,20.69
2022-08-17T21:36:12.294Z,20.74
2022-08-17T21:38:47.854Z,20.70
2022-08-17T21:41:28.511Z,20.69
2022-08-17T21:44:05.233Z,20.68
2022-08-17T21:46:37.831Z,20.72
2022-08-17T21:49:09.170Z,20.66
2022-08-17T21:51:46.933Z,20.65
2022-08-17T21:54:35.585Z,20.65
2022-08-17T21:57:05.548Z,20.60
2022-08-17T21:59:35.656Z,20.59
2022-08-17T22:02:06.960Z,20.62
2022-08-17T22:04:39.619Z,20.60
2022-08-17T22:07:12.703Z,20.53
2022-08-17T22:09:48.686Z,20.47
2022-08-17T22:12:18.839Z,20.45
2022-08-17T22:14:57.212Z,20.23
2022-08-17T22:17:23.588Z,20.31
2022-08-17T22:19:59.524Z,20.29
2022-08-17T22:22:32.463Z,20.32
2022-08-17T22:25:04.097Z,20.22
2022-08-17T22:27:48.517Z,20.18
2022-08-17T22:30:26.195Z,20.15
2022-08-17T22:32:53.931Z,20.11
2022-08-17T22:36:11.023Z,20.20
2022-08-17T22:38:38.967Z,20.16
2022-08-17T22:41:32.138Z,20.11
2022-08-17T22:44:08.952Z,20.19
2022-08-17T22:46:41.046Z,20.14
2022-08-17T22:49:07.663Z,20.07
2022-08-17T22:51:34.119Z,20.00
2022-08-17T22:54:21.895Z,20.09
2022-08-17T22:57:18.966Z,20.11
2022-08-17T22:59:49.446Z,20.09
2022-08-17T23:02:19.477Z,20.06
2022-08-17T23:04:54.326Z,20.04
2022-08-17T23:07:21.551Z,20.13
2022-08-17T23:09:48.163Z,20.07
2022-08-17T23:12:22.749Z,20.07
2022-08-17T23:14:51.367Z,20.05
2022-08-17T23:17:18.043Z,19.79
2022-08-17T23:19:45.028Z,19.82
2022-08-17T23:22:11.755Z,19.95
2022-08-17T23:24:46.455Z,19.86
2022-08-17T23:27:12.968Z,19.90
2022-08-17T23:29:41.943Z,19.77
2022-08-17T23:32:14.677Z,19.76
2022-08-17T23:34:44.029Z,19.67
2022-08-17T23:37:11.781Z,19.66
2022-08-17T23:39:39.621Z,19.60
2022-08-17T23:42:08.977Z,19.63
2022-08-17T23:44:37.245Z,19.71
2022-08-17T23:47:04.798Z,19.77
2022-08-17T23:49:31.860Z,19.86
2022-08-17T23:52:01.233Z,19.84
2022-08-17T23:54:34.097Z,19.31
2022-08-17T23:57:04.026Z,19.21
2022-08-17T23:59:30.468Z,19.15
